Time;durP1;ratioP1;P1;durP2;ratioP2;P2;SDS_P1;SDS_P2;PMS_P1;PMS_P2;Temp;Humidity;BMP_temperature;BMP_pressure;BME280_temperature;BME280_humidity;BME280_pressure;Samples;Min_cycle;Max_cycle;Signal;HPM_P1;HPM_P2
2021/03/02 00:02:03;;;;;;;33.13;17.38;;;3.60;92.80;;;4.64;71.82;102104.22;4941240;29;20039;-84
2021/03/02 00:04:31;;;;;;;32.90;17.08;;;3.60;92.30;;;4.64;72.02;102100.66;4940093;29;20044;-84
2021/03/02 00:06:58;;;;;;;32.25;16.40;;;3.60;93.00;;;4.61;71.98;102104.44;4940258;29;20127;-84
2021/03/02 00:09:25;;;;;;;35.65;17.45;;;3.60;92.70;;;4.61;71.70;102106.28;4940542;29;20055;-84
2021/03/02 00:11:53;;;;;;;32.47;17.30;;;3.50;92.60;;;4.57;71.81;102102.94;4939074;29;20044;-84
2021/03/02 00:14:22;;;;;;;32.90;16.60;;;3.50;92.60;;;4.54;71.26;102107.69;4939604;29;20032;-84
2021/03/02 00:16:56;;;;;;;31.52;16.92;;;3.40;92.40;;;4.50;71.35;102101.63;4939827;29;20051;-84
2021/03/02 00:19:30;;;;;;;30.85;16.83;;;3.40;92.70;;;4.46;71.26;102100.97;4939992;29;20054;-84
2021/03/02 00:22:14;;;;;;;33.17;17.70;;;3.30;92.70;;;4.46;71.13;102102.81;4939627;29;20043;-83
2021/03/02 00:24:45;;;;;;;31.95;17.95;;;3.30;92.70;;;4.42;70.76;102099.47;4939658;29;20482;-84
2021/03/02 00:27:14;;;;;;;32.30;17.40;;;3.30;92.50;;;4.43;70.80;102108.41;4939455;29;20050;-84
2021/03/02 00:29:43;;;;;;;34.38;16.60;;;3.30;92.80;;;4.34;71.08;102099.13;4954651;29;20043;-84
2021/03/02 00:32:10;;;;;;;29.92;16.73;;;3.20;92.50;;;4.30;70.99;102101.19;4938350;29;20052;-84
2021/03/02 00:34:38;;;;;;;29.75;17.08;;;3.20;92.50;;;4.26;71.38;102105.00;4939495;29;20039;-84
2021/03/02 00:37:05;;;;;;;34.95;17.35;;;3.20;92.80;;;4.25;71.31;102103.31;4939059;29;20047;-83
2021/03/02 00:39:32;;;;;;;35.03;17.73;;;3.10;92.80;;;4.26;71.69;102102.31;4939699;29;20443;-84
2021/03/02 00:41:59;;;;;;;35.95;17.80;;;3.10;93.30;;;4.22;71.70;102098.13;4939113;29;20102;-84
2021/03/02 00:44:25;;;;;;;32.10;16.85;;;3.10;93.40;;;4.27;71.69;102101.38;4939584;29;20039;-84
2021/03/02 00:46:52;;;;;;;31.08;17.05;;;3.10;93.30;;;4.28;72.04;102108.50;4953656;29;20067;-84
2021/03/02 00:49:18;;;;;;;32.88;17.02;;;3.20;93.60;;;4.28;72.07;102107.63;4937957;29;20056;-84
2021/03/02 00:51:45;;;;;;;30.40;17.50;;;3.20;93.40;;;4.25;71.35;102102.44;4939329;29;20047;-84
2021/03/02 00:54:13;;;;;;;31.98;16.95;;;3.20;93.20;;;4.22;71.41;102103.50;4938147;29;20131;-84
2021/03/02 00:56:40;;;;;;;31.23;17.27;;;3.20;93.30;;;4.25;72.04;102106.00;4937765;29;20095;-84
2021/03/02 00:59:07;;;;;;;32.38;16.85;;;3.10;93.30;;;4.25;71.75;102105.16;4954477;28;20536;-84
2021/03/02 01:01:36;;;;;;;32.75;16.92;;;3.10;93.10;;;4.22;71.81;102108.03;4937381;29;20415;-84
2021/03/02 01:04:05;;;;;;;29.00;16.23;;;3.10;93.20;;;4.19;71.95;102101.03;4939383;29;20040;-84
2021/03/02 01:06:33;;;;;;;30.65;16.33;;;3.10;93.20;;;4.18;71.18;102107.38;4939330;29;20039;-84
2021/03/02 01:09:01;;;;;;;31.60;16.88;;;3.10;92.90;;;4.15;71.64;102112.09;4938262;29;20048;-84
2021/03/02 01:11:28;;;;;;;31.10;16.90;;;3.00;93.00;;;4.20;71.40;102104.59;4939129;29;20048;-84
2021/03/02 01:13:55;;;;;;;31.38;17.15;;;3.30;93.30;;;4.16;71.40;102106.63;4939469;29;20043;-83
2021/03/02 01:16:22;;;;;;;35.10;16.65;;;3.00;93.00;;;4.11;71.97;102106.06;4938531;29;20479;-84
2021/03/02 01:18:49;;;;;;;32.85;16.05;;;3.00;92.70;;;4.17;71.30;102107.47;4938607;29;20083;-84
2021/03/02 01:21:15;;;;;;;32.17;16.85;;;3.00;93.00;;;4.13;72.01;102103.25;4939292;29;20104;-84
2021/03/02 01:23:42;;;;;;;32.58;16.95;;;3.00;93.00;;;4.17;71.95;102088.63;4937133;29;20044;-83
2021/03/02 01:26:09;;;;;;;31.17;16.17;;;3.10;93.50;;;4.20;71.95;102094.66;4938717;29;20134;-84
2021/03/02 01:28:37;;;;;;;31.25;16.98;;;3.10;93.40;;;4.22;72.51;102092.72;4938205;29;20044;-84
2021/03/02 01:31:03;;;;;;;32.38;17.42;;;3.20;93.70;;;4.19;71.75;102097.44;4938389;29;20135;-84
2021/03/02 01:33:30;;;;;;;33.75;17.90;;;3.20;93.30;;;4.15;72.41;102102.22;4938310;29;20175;-83
2021/03/02 01:35:57;;;;;;;30.70;16.35;;;3.10;93.60;;;4.14;71.88;102089.69;4938023;29;20129;-83
2021/03/02 01:38:24;;;;;;;34.90;16.80;;;3.10;93.20;;;4.09;71.63;102097.22;4938172;29;20103;-84
2021/03/02 01:40:51;;;;;;;33.88;16.48;;;3.00;92.90;;;4.09;72.01;102105.31;4938468;29;20130;-84
2021/03/02 01:43:18;;;;;;;35.35;17.45;;;3.00;93.00;;;4.06;72.00;102092.06;4937205;29;20050;-84
2021/03/02 01:45:46;;;;;;;31.23;15.82;;;3.00;93.00;;;4.05;71.59;102096.56;4937587;29;20142;-83
2021/03/02 01:48:13;;;;;;;30.80;16.13;;;3.00;93.20;;;4.02;71.27;102093.22;4937906;29;20110;-84
2021/03/02 01:50:40;;;;;;;30.85;17.15;;;3.00;92.70;;;3.95;71.48;102092.75;4938867;29;20175;-84
2021/03/02 01:53:06;;;;;;;30.05;17.00;;;2.90;92.60;;;3.95;71.74;102091.91;4938969;29;20098;-84
2021/03/02 01:55:33;;;;;;;34.47;17.65;;;2.90;92.70;;;3.96;71.57;102093.63;4938207;29;20111;-84
2021/03/02 01:58:00;;;;;;;33.70;17.17;;;2.80;93.00;;;3.97;71.54;102088.13;4935945;29;20506;-83
2021/03/02 02:00:31;;;;;;;30.63;16.83;;;2.80;92.80;;;3.90;71.25;102094.91;4937084;29;20146;-84
2021/03/02 02:03:16;;;;;;;32.20;17.38;;;2.80;92.60;;;3.89;71.62;102085.97;4936478;29;20129;-84
2021/03/02 02:05:47;;;;;;;32.50;16.67;;;2.80;92.90;;;3.87;71.06;102087.88;4938213;29;20050;-84
2021/03/02 02:08:21;;;;;;;35.00;17.00;;;2.80;92.90;;;3.84;71.47;102077.31;4936468;29;20152;-84
2021/03/02 02:10:54;;;;;;;30.50;17.48;;;2.70;93.00;;;3.83;71.62;102080.13;4938097;29;20063;-84
2021/03/02 02:13:27;;;;;;;32.33;16.63;;;2.70;93.10;;;3.78;71.35;102079.56;4950799;28;20464;-84
2021/03/02 02:15:59;;;;;;;32.13;16.88;;;2.70;92.70;;;3.81;71.31;102077.53;4956836;28;20035;-84
2021/03/02 02:18:33;;;;;;;30.55;16.08;;;2.70;92.80;;;3.78;70.77;102077.72;4957078;28;20130;-84
2021/03/02 02:21:14;;;;;;;32.00;17.58;;;2.60;92.70;;;3.76;71.53;102076.13;4956959;28;20692;-84
2021/03/02 02:23:48;;;;;;;35.25;17.38;;;2.60;92.80;;;3.74;71.21;102073.50;4942708;29;20121;-83
2021/03/02 02:26:46;;;;;;;32.42;17.60;;;2.60;93.00;;;3.77;71.23;102069.75;4918624;29;20488;-84
2021/03/02 02:29:16;;;;;;;30.48;16.95;;;2.60;93.20;;;3.70;71.30;102072.00;4918564;29;20062;-83
2021/03/02 02:31:46;;;;;;;29.20;16.33;;;2.60;92.80;;;3.66;71.17;102074.03;4918935;29;20092;-83
2021/03/02 02:34:16;;;;;;;29.80;16.15;;;2.50;93.20;;;3.64;71.59;102069.72;4918634;29;20148;-84
2021/03/02 02:36:46;;;;;;;27.88;16.23;;;2.60;93.30;;;3.70;71.38;102070.16;4918396;29;20127;-84
2021/03/02 02:39:15;;;;;;;31.52;17.20;;;2.60;93.40;;;3.70;71.72;102063.91;4937932;29;20179;-83
2021/03/02 02:41:44;;;;;;;32.20;17.58;;;2.60;93.20;;;3.65;71.68;102069.59;4936200;29;20051;-84
2021/03/02 02:44:12;;;;;;;31.77;16.52;;;2.60;93.10;;;3.73;72.04;102071.78;4938201;29;20399;-84
2021/03/02 02:46:40;;;;;;;32.55;16.85;;;2.60;93.60;;;3.71;71.84;102065.63;4931397;29;22066;-84
2021/03/02 02:49:11;;;;;;;32.30;18.10;;;2.60;93.60;;;3.71;71.43;102057.56;4923400;29;20071;-84
2021/03/02 02:51:39;;;;;;;32.25;16.05;;;2.60;93.60;;;3.66;71.70;102063.25;4937492;29;20134;-84
2021/03/02 02:54:07;;;;;;;33.90;17.50;;;2.60;93.40;;;3.64;71.76;102067.03;4937399;29;20099;-83
2021/03/02 02:56:36;;;;;;;28.77;16.40;;;2.60;93.70;;;3.65;71.79;102060.66;4937160;29;20082;-84
2021/03/02 02:59:08;;;;;;;28.75;16.05;;;2.60;93.70;;;3.63;71.97;102063.44;4936248;29;20094;-84
2021/03/02 03:01:43;;;;;;;32.15;16.98;;;2.60;93.70;;;3.64;71.75;102065.19;4938207;29;20040;-84
2021/03/02 03:04:15;;;;;;;28.70;16.48;;;2.60;93.70;;;3.60;71.86;102063.66;4937537;29;20119;-84
2021/03/02 03:06:45;;;;;;;28.95;16.25;;;2.50;93.40;;;3.52;71.52;102058.78;4937270;29;20048;-84
2021/03/02 03:09:13;;;;;;;29.10;15.45;;;2.50;93.30;;;3.52;71.91;102065.97;4937732;29;20130;-84
2021/03/02 03:11:44;;;;;;;28.17;15.77;;;2.50;93.30;;;3.55;71.93;102064.94;4935888;29;20075;-84
2021/03/02 03:14:15;;;;;;;30.77;15.73;;;2.50;93.30;;;3.52;71.26;102064.19;4937900;29;20101;-84
2021/03/02 03:16:44;;;;;;;27.88;16.20;;;2.50;92.90;;;3.57;71.36;102063.00;4935659;29;20146;-84
2021/03/02 03:19:21;;;;;;;28.95;16.08;;;2.40;92.80;;;3.51;71.27;102065.13;4936823;29;20134;-84
2021/03/02 03:21:48;;;;;;;28.65;15.35;;;2.40;92.70;;;3.49;70.83;102061.66;4937618;29;20082;-84
2021/03/02 03:24:16;;;;;;;29.23;15.45;;;2.40;92.80;;;3.44;71.27;102053.03;4935804;29;20067;-83
2021/03/02 03:26:43;;;;;;;27.33;15.60;;;2.30;93.00;;;3.43;71.42;102055.84;4941636;29;20497;-83
2021/03/02 03:29:11;;;;;;;27.88;15.32;;;2.40;93.20;;;3.39;71.51;102057.88;4941226;29;20075;-84
2021/03/02 03:31:38;;;;;;;30.75;15.50;;;2.30;93.10;;;3.40;71.32;102059.56;4940641;29;20063;-84
2021/03/02 03:34:06;;;;;;;30.38;15.38;;;2.30;93.30;;;3.38;71.62;102058.81;4941713;29;20051;-83
2021/03/02 03:36:35;;;;;;;28.55;14.95;;;2.30;93.20;;;3.40;71.32;102062.25;4955353;28;20059;-83
2021/03/02 03:39:02;;;;;;;29.90;15.02;;;2.30;93.40;;;3.37;71.00;102057.09;4941125;29;20131;-84
2021/03/02 03:41:29;;;;;;;30.23;16.40;;;2.30;93.30;;;3.39;71.79;102060.56;4940981;29;20565;-83
2021/03/02 03:43:56;;;;;;;29.23;14.98;;;2.20;93.70;;;3.34;71.45;102062.66;4940658;29;20043;-84
2021/03/02 03:46:23;;;;;;;27.85;15.10;;;2.20;93.40;;;3.32;71.42;102059.22;4941385;29;20083;-84
2021/03/02 03:48:50;;;;;;;29.35;15.05;;;2.20;93.50;;;3.31;71.53;102062.84;4941274;29;20044;-84
2021/03/02 03:51:17;;;;;;;27.83;14.93;;;2.20;93.40;;;3.29;71.62;102059.41;4941272;29;20489;-83
2021/03/02 03:53:45;;;;;;;30.27;15.02;;;2.20;93.70;;;3.31;71.65;102058.38;4940071;29;20134;-84
2021/03/02 03:56:14;;;;;;;27.98;14.65;;;2.30;93.50;;;3.29;72.12;102054.03;4939609;29;20051;-84
2021/03/02 03:58:43;;;;;;;31.08;16.05;;;2.30;94.00;;;3.26;71.78;102054.25;4941145;29;20078;-84
2021/03/02 04:01:11;;;;;;;30.55;15.15;;;2.30;93.50;;;3.32;72.30;102053.84;4940301;29;20099;-83
2021/03/02 04:03:40;;;;;;;30.42;15.43;;;2.30;93.90;;;3.26;71.80;102057.78;4940786;29;20051;-83
2021/03/02 04:06:08;;;;;;;27.45;14.95;;;2.30;93.40;;;3.28;71.53;102057.69;4940438;29;20040;-84
2021/03/02 04:08:35;;;;;;;28.50;14.38;;;2.30;93.30;;;3.27;71.78;102051.44;4940663;29;20417;-84
2021/03/02 04:11:04;;;;;;;26.98;15.35;;;2.20;93.00;;;3.23;71.50;102065.19;4940869;29;20051;-84
2021/03/02 04:13:31;;;;;;;30.27;15.38;;;2.20;93.10;;;3.23;71.73;102065.19;4940589;29;20114;-84
2021/03/02 04:15:59;;;;;;;28.83;15.73;;;2.20;93.50;;;3.22;71.89;102063.44;4939257;29;20082;-84
2021/03/02 04:18:27;;;;;;;26.88;15.40;;;2.20;93.30;;;3.25;72.12;102058.72;4939841;29;20122;-84
2021/03/02 04:20:55;;;;;;;27.45;15.27;;;2.20;93.40;;;3.30;71.75;102067.38;4938752;29;20048;-83
2021/03/02 04:23:22;;;;;;;30.98;16.17;;;2.30;93.30;;;3.26;71.33;102055.09;4939758;29;20182;-83
2021/03/02 04:25:48;;;;;;;27.30;15.43;;;2.20;92.90;;;3.22;72.11;102064.34;4939865;29;20593;-83
2021/03/02 04:28:15;;;;;;;28.63;15.35;;;2.20;93.00;;;3.28;71.13;102060.38;4940089;29;20075;-83
2021/03/02 04:30:42;;;;;;;28.55;15.70;;;2.20;93.00;;;3.28;71.31;102063.06;4937049;29;20055;-83
2021/03/02 04:33:08;;;;;;;26.98;15.18;;;2.20;93.20;;;3.25;70.89;102068.63;4937644;29;20099;-83
2021/03/02 04:35:36;;;;;;;25.55;14.73;;;2.20;92.90;;;3.20;70.89;102068.94;4937523;29;20134;-84
2021/03/02 04:38:04;;;;;;;27.90;15.20;;;2.10;92.90;;;3.22;71.95;102074.22;4938456;29;20086;-83
2021/03/02 04:40:31;;;;;;;26.67;15.80;;;2.10;93.40;;;3.27;71.27;102072.09;4954154;29;20150;-83
2021/03/02 04:42:58;;;;;;;27.33;14.63;;;2.10;93.60;;;3.21;71.79;102067.13;4939694;29;20130;-83
2021/03/02 04:45:25;;;;;;;29.30;14.90;;;2.20;93.30;;;3.20;71.49;102071.63;4940190;29;20044;-84
2021/03/02 04:47:52;;;;;;;29.63;14.13;;;2.10;93.40;;;3.12;71.55;102069.44;4939362;29;20044;-84
2021/03/02 04:50:19;;;;;;;31.92;15.20;;;2.00;93.00;;;3.18;70.84;102078.06;4939935;29;20079;-84
2021/03/02 04:52:45;;;;;;;29.33;15.73;;;2.10;93.10;;;3.07;70.82;102065.31;4939623;29;20581;-84
2021/03/02 04:55:14;;;;;;;29.23;15.50;;;2.00;93.00;;;3.09;71.80;102069.63;4939428;29;20130;-84
2021/03/02 04:58:04;;;;;;;28.83;15.15;;;2.00;93.40;;;3.03;71.16;102066.47;4937807;29;20052;-84
2021/03/02 05:00:31;;;;;;;25.83;14.65;;;2.00;93.20;;;3.05;71.02;102065.41;4861768;29;20085;-84
2021/03/02 05:02:57;;;;;;;29.70;14.98;;;2.00;93.00;;;3.04;71.18;102070.88;4861859;29;20136;-84
2021/03/02 05:05:24;;;;;;;28.30;15.50;;;2.00;93.20;;;3.04;71.26;102077.09;4861713;29;20152;-83
2021/03/02 05:07:51;;;;;;;27.02;15.15;;;2.00;93.30;;;3.07;71.57;102071.56;4861843;29;20061;-83
2021/03/02 05:10:19;;;;;;;24.63;14.52;;;2.00;93.40;;;3.08;71.59;102067.03;4861808;29;20493;-84
2021/03/02 05:12:45;;;;;;;28.10;15.02;;;2.00;93.10;;;3.04;71.04;102066.34;4862511;29;20089;-84
2021/03/02 05:15:13;;;;;;;26.92;14.77;;;2.00;93.20;;;3.00;71.82;102063.97;4861896;29;20441;-84
2021/03/02 05:17:40;;;;;;;26.80;14.48;;;1.90;93.00;;;3.02;71.25;102056.66;4861430;29;20075;-83
2021/03/02 05:20:09;;;;;;;26.27;15.32;;;2.00;93.50;;;3.05;71.57;102062.72;4861557;29;20049;-84
2021/03/02 05:22:35;;;;;;;26.23;14.70;;;2.00;93.40;;;3.07;70.74;102060.78;4862106;29;20269;-83
2021/03/02 05:25:02;;;;;;;24.60;14.45;;;2.00;93.00;;;3.05;71.85;102068.09;4861395;29;20114;-83
2021/03/02 05:27:30;;;;;;;28.10;14.40;;;2.00;93.20;;;3.07;71.69;102063.47;4861510;29;20049;-84
2021/03/02 05:29:57;;;;;;;28.45;15.20;;;2.10;93.40;;;3.11;72.68;102058.78;4861207;29;20509;-83
2021/03/02 05:32:24;;;;;;;27.75;14.13;;;2.10;93.90;;;3.11;72.53;102062.31;4862187;29;20132;-83
2021/03/02 05:34:50;;;;;;;27.10;14.40;;;2.20;93.70;;;3.12;72.15;102053.31;4861917;29;20560;-83
2021/03/02 05:37:17;;;;;;;26.98;15.00;;;2.20;93.90;;;3.17;72.15;102050.31;4891320;29;20056;-84
2021/03/02 05:39:44;;;;;;;26.05;15.02;;;2.20;94.00;;;3.12;72.49;102057.78;4939104;29;20052;-84
2021/03/02 05:42:11;;;;;;;25.63;13.65;;;2.20;93.60;;;3.17;72.30;102054.81;4938874;29;20135;-84
2021/03/02 05:44:38;;;;;;;28.58;15.02;;;2.20;94.00;;;3.09;72.33;102058.00;4937629;29;20577;-83
2021/03/02 05:47:05;;;;;;;25.85;14.35;;;2.20;93.80;;;3.15;72.63;102060.31;4934935;29;20036;-84
2021/03/02 05:49:32;;;;;;;27.48;14.10;;;2.20;93.40;;;3.18;72.35;102061.91;4919712;29;20067;-83
2021/03/02 05:51:59;;;;;;;23.42;13.20;;;2.20;93.80;;;3.13;72.59;102060.38;4919944;29;20143;-84
2021/03/02 05:54:27;;;;;;;24.05;13.70;;;2.20;93.60;;;3.17;72.95;102060.22;4917700;29;20134;-84
2021/03/02 05:56:54;;;;;;;24.75;14.13;;;2.30;93.90;;;3.08;71.89;102059.81;4919693;29;20075;-84
2021/03/02 05:59:20;;;;;;;28.42;14.90;;;2.20;93.30;;;3.10;71.96;102059.72;4919291;29;20104;-83
2021/03/02 06:01:49;;;;;;;26.80;14.32;;;2.20;93.10;;;3.05;71.94;102056.47;4919648;29;20075;-83
2021/03/02 06:04:16;;;;;;;24.88;14.13;;;2.10;92.90;;;3.05;72.26;102051.97;4919821;29;20044;-83
2021/03/02 06:06:43;;;;;;;24.42;14.50;;;2.10;93.00;;;3.01;71.47;102053.13;4917974;29;20052;-84
2021/03/02 06:09:10;;;;;;;25.50;14.38;;;2.10;93.00;;;2.98;71.39;102056.00;4919529;29;20118;-84
2021/03/02 06:11:38;;;;;;;26.60;14.73;;;2.10;93.00;;;2.96;72.31;102049.84;4919447;29;20127;-83
2021/03/02 06:14:22;;;;;;;25.05;13.63;;;2.10;93.10;;;3.00;72.17;102054.06;4919354;29;20040;-83
2021/03/02 06:16:52;;;;;;;23.65;13.95;;;2.10;93.70;;;3.02;72.41;102046.75;4918979;29;20037;-84
2021/03/02 06:19:35;;;;;;;26.58;14.40;;;2.10;93.20;;;3.02;71.86;102046.75;4919465;29;20091;-83
2021/03/02 06:22:02;;;;;;;27.33;14.30;;;2.10;93.00;;;2.94;71.80;102051.78;4934046;29;20074;-84
2021/03/02 06:24:39;;;;;;;24.90;14.40;;;2.00;92.80;;;2.93;72.38;102063.47;4918500;29;20231;-80
2021/03/02 06:27:11;;;;;;;27.23;15.15;;;2.00;93.10;;;2.92;71.54;102051.88;4915692;29;20134;-80
2021/03/02 06:29:39;;;;;;;25.52;14.40;;;2.00;93.00;;;2.90;72.17;102059.16;4916456;29;20052;-81
2021/03/02 06:32:08;;;;;;;26.98;14.23;;;2.00;93.00;;;2.91;72.13;102060.03;4916485;29;20545;-83
2021/03/02 06:34:35;;;;;;;27.15;14.52;;;2.00;93.10;;;2.92;71.51;102061.75;4915627;29;20043;-83
2021/03/02 06:37:04;;;;;;;26.65;14.93;;;2.00;92.90;;;2.92;72.46;102059.06;4915768;29;20507;-83
2021/03/02 06:39:34;;;;;;;30.77;14.77;;;2.10;93.40;;;2.96;72.64;102057.91;4915057;29;20040;-83
2021/03/02 06:42:14;;;;;;;27.55;14.00;;;2.20;93.50;;;2.98;72.38;102057.81;4915195;29;20047;-83
2021/03/02 06:44:43;;;;;;;28.55;14.73;;;2.20;93.50;;;3.08;73.07;102062.50;4915100;29;20152;-83
2021/03/02 06:47:13;;;;;;;28.08;13.65;;;2.30;93.80;;;3.15;73.07;102057.59;4914320;29;20076;-83
2021/03/02 06:49:43;;;;;;;34.45;14.93;;;2.40;93.90;;;3.17;73.59;102066.44;4914738;29;20060;-83
2021/03/02 06:52:19;;;;;;;29.65;15.73;;;2.50;93.80;;;3.22;73.10;102066.13;4915715;29;20056;-83
2021/03/02 06:54:48;;;;;;;27.33;14.52;;;2.50;93.90;;;3.26;73.59;102075.75;4916270;29;20045;-83
2021/03/02 06:57:22;;;;;;;27.52;13.73;;;2.60;93.90;;;3.26;73.34;102068.53;4917128;29;20131;-83
2021/03/02 06:59:54;;;;;;;30.67;14.13;;;2.60;93.90;;;3.31;73.34;102074.50;4936217;29;20110;-83
2021/03/02 07:02:36;;;;;;;28.83;14.60;;;2.60;94.10;;;3.36;73.81;102071.50;4939139;29;20050;-83
2021/03/02 07:05:09;;;;;;;27.00;13.38;;;2.70;94.10;;;3.39;74.54;102081.19;4939458;29;20047;-82
2021/03/02 07:07:37;;;;;;;29.75;14.55;;;2.80;94.00;;;3.40;74.17;102075.72;4938224;29;20689;-83
2021/03/02 07:10:06;;;;;;;27.10;13.77;;;2.90;94.00;;;3.49;74.12;102077.81;4937241;29;20111;-83
2021/03/02 07:12:36;;;;;;;25.52;14.23;;;3.00;94.00;;;3.50;74.19;102078.69;4937841;29;20054;-83
2021/03/02 07:15:06;;;;;;;23.70;14.48;;;3.00;93.90;;;3.53;74.34;102084.72;4936749;29;20079;-83
2021/03/02 07:17:37;;;;;;;26.83;13.57;;;3.10;93.80;;;3.56;74.31;102077.41;4937767;29;20044;-83
2021/03/02 07:20:07;;;;;;;25.42;13.68;;;3.20;93.70;;;3.65;74.75;102082.19;4939391;29;20098;-83
2021/03/02 07:22:37;;;;;;;25.93;14.77;;;3.20;93.60;;;3.71;74.54;102076.41;4928468;29;20055;-82
2021/03/02 07:25:08;;;;;;;24.92;13.18;;;3.30;93.60;;;3.77;74.64;102081.41;4916741;29;20040;-83
2021/03/02 07:27:37;;;;;;;25.38;14.05;;;3.40;93.50;;;3.83;74.27;102082.81;4917067;29;20055;-83
2021/03/02 07:30:06;;;;;;;26.58;13.18;;;3.40;93.40;;;3.81;74.90;102082.91;4917496;29;20055;-83
2021/03/02 07:32:34;;;;;;;23.83;14.13;;;3.50;93.20;;;3.83;75.06;102086.38;4917203;29;20272;-82
2021/03/02 07:35:01;;;;;;;24.40;14.15;;;3.60;93.10;;;3.89;75.04;102082.41;4917652;29;20055;-82
2021/03/02 07:37:28;;;;;;;24.50;14.02;;;3.60;93.10;;;3.92;75.18;102076.78;4919992;29;20507;-83
2021/03/02 07:40:06;;;;;;;26.33;14.10;;;3.70;93.10;;;3.96;74.89;102082.84;4936363;29;20165;-83
2021/03/02 07:42:33;;;;;;;22.73;13.23;;;3.70;93.00;;;4.00;75.50;102084.38;4922252;29;20048;-83
2021/03/02 07:45:12;;;;;;;22.13;13.15;;;3.80;92.90;;;4.06;75.12;102082.13;4917209;29;20491;-82
2021/03/02 07:47:48;;;;;;;26.85;14.18;;;3.90;92.90;;;4.12;76.08;102083.56;4916207;29;20111;-82
2021/03/02 07:50:17;;;;;;;25.35;14.35;;;4.00;93.40;;;4.18;75.10;102082.28;4915168;29;20675;-81
2021/03/02 07:52:44;;;;;;;24.80;13.68;;;4.10;93.00;;;4.20;76.10;102083.88;4918479;29;20067;-82
2021/03/02 07:55:22;;;;;;;28.35;14.43;;;4.20;93.30;;;4.27;76.00;102079.81;4917228;29;20119;-81
2021/03/02 07:58:13;;;;;;;23.25;13.35;;;4.30;93.20;;;4.38;75.74;102081.78;4916319;29;20499;-81
2021/03/02 08:00:40;;;;;;;23.45;13.75;;;4.40;93.10;;;4.46;75.60;102083.94;4928190;29;20190;-83
2021/03/02 08:03:30;;;;;;;22.30;13.00;;;4.50;93.00;;;4.54;75.51;102080.72;4946622;29;20067;-85
2021/03/02 08:06:21;;;;;;;25.92;13.13;;;4.60;93.10;;;4.59;75.41;102089.31;4939949;28;20044;-82
2021/03/02 08:08:48;;;;;;;25.77;12.80;;;4.70;92.50;;;4.65;76.11;102087.09;4946927;28;20142;-82
2021/03/02 08:11:35;;;;;;;21.17;12.13;;;4.90;92.70;;;4.69;75.76;102085.88;4957031;28;20516;-84
2021/03/02 08:14:28;;;;;;;22.35;12.55;;;5.10;91.90;;;4.76;75.78;102085.44;4956451;28;20074;-82
2021/03/02 08:16:59;;;;;;;25.45;13.75;;;5.10;91.60;;;4.83;75.61;102084.06;4944300;29;20055;-83
2021/03/02 08:19:40;;;;;;;21.85;13.73;;;5.30;91.50;;;4.88;75.97;102093.53;4956075;28;20223;-83
2021/03/02 08:22:48;;;;;;;25.57;13.80;;;5.30;92.00;;;4.95;76.68;102091.28;4955780;28;20043;-82
2021/03/02 08:25:30;;;;;;;26.05;13.73;;;5.50;92.30;;;5.02;76.70;102091.69;4955544;28;20094;-83
2021/03/02 08:28:03;;;;;;;25.17;11.95;;;5.60;92.00;;;5.09;77.81;102091.16;4955597;28;20047;-83
2021/03/02 08:30:36;;;;;;;21.95;12.18;;;5.70;92.40;;;5.17;76.88;102089.75;4955937;28;20498;-82
2021/03/02 08:33:08;;;;;;;27.08;12.75;;;5.90;91.70;;;5.22;78.21;102093.00;4917031;29;20076;-83
2021/03/02 08:35:38;;;;;;;22.70;12.52;;;6.00;91.80;;;5.27;77.54;102096.19;4917460;29;20080;-82
2021/03/02 08:38:06;;;;;;;25.48;12.55;;;6.10;90.60;;;5.35;77.84;102093.81;4917169;29;20044;-83
2021/03/02 08:40:57;;;;;;;27.42;12.05;;;6.20;90.50;;;5.43;77.53;102091.41;4917975;29;20051;-83
2021/03/02 08:43:25;;;;;;;23.27;12.73;;;6.40;90.20;;;5.51;77.52;102081.91;4902508;29;20060;-83
2021/03/02 08:45:54;;;;;;;23.10;11.65;;;6.50;89.90;;;5.57;76.91;102090.41;4924521;29;20074;-82
2021/03/02 08:48:25;;;;;;;19.88;11.57;;;6.60;89.30;;;5.64;77.15;102082.72;4932371;28;20052;-83
2021/03/02 08:50:55;;;;;;;22.67;10.80;;;6.70;89.10;;;5.71;77.13;102085.81;4924656;29;20107;-83
2021/03/02 08:53:35;;;;;;;21.60;11.60;;;6.80;88.30;;;5.77;76.70;102082.63;4929162;29;20399;-83
2021/03/02 08:56:05;;;;;;;18.73;9.90;;;6.90;88.30;;;5.84;76.62;102084.75;4943708;28;20308;-82
2021/03/02 08:58:36;;;;;;;17.77;9.88;;;7.00;87.90;;;5.93;77.07;102085.06;4935827;29;20714;-82
2021/03/02 09:01:08;;;;;;;21.42;10.77;;;7.20;87.70;;;6.00;76.82;102084.53;4943342;29;20134;-82
2021/03/02 09:03:36;;;;;;;20.65;9.82;;;7.30;87.30;;;6.08;76.87;102092.06;4943351;29;20086;-83
2021/03/02 09:06:19;;;;;;;19.17;10.18;;;7.40;87.50;;;6.18;77.24;102090.38;4928536;29;20095;-82
2021/03/02 09:08:53;;;;;;;19.40;9.57;;;7.50;87.30;;;6.22;76.29;102081.03;4928799;29;20040;-83
2021/03/02 09:11:24;;;;;;;19.33;9.57;;;7.50;86.10;;;6.29;76.20;102089.56;4930436;29;20498;-84
2021/03/02 09:13:52;;;;;;;17.80;9.55;;;7.60;85.70;;;6.37;76.34;102097.06;4935641;29;20051;-84
2021/03/02 09:16:45;;;;;;;17.65;9.50;;;7.70;85.40;;;6.45;75.70;102084.69;4931545;28;20075;-84
2021/03/02 09:19:20;;;;;;;26.70;9.85;;;7.80;85.30;;;6.50;75.47;102087.03;4956898;28;20047;-83
2021/03/02 09:21:51;;;;;;;18.83;9.82;;;7.90;85.20;;;6.57;75.50;102090.13;4943701;28;20418;-84
2021/03/02 09:24:20;;;;;;;18.73;9.55;;;8.00;84.70;;;6.61;74.96;102095.16;4922613;29;20059;-83
2021/03/02 09:26:57;;;;;;;23.38;10.68;;;8.10;84.00;;;6.68;75.09;102084.72;4941054;28;20043;-84
2021/03/02 09:29:26;;;;;;;17.65;9.60;;;8.20;83.80;;;6.73;74.82;102085.22;4922727;29;20174;-84
2021/03/02 09:31:56;;;;;;;17.52;8.75;;;8.20;83.30;;;6.77;74.37;102083.13;4924228;29;20062;-84
2021/03/02 09:34:32;;;;;;;17.95;10.05;;;8.30;83.20;;;6.83;74.57;102078.13;4920286;29;20079;-84
2021/03/02 09:37:08;;;;;;;15.38;9.20;;;8.30;83.30;;;6.91;75.22;102080.22;4913214;29;20472;-83
2021/03/02 09:39:36;;;;;;;18.20;9.38;;;8.50;83.40;;;6.98;75.48;102081.44;4916151;29;20127;-84
2021/03/02 09:42:18;;;;;;;21.98;9.45;;;8.50;83.20;;;7.07;74.58;102079.00;4913948;29;20083;-84
2021/03/02 09:44:47;;;;;;;18.30;9.63;;;8.60;82.90;;;7.12;74.47;102074.03;4915320;29;20068;-83
2021/03/02 09:47:18;;;;;;;18.17;8.85;;;8.70;82.60;;;7.20;74.40;102075.16;4914622;29;20044;-83
2021/03/02 09:49:53;;;;;;;19.15;9.30;;;8.80;82.70;;;7.28;74.72;102077.25;4918541;29;20048;-83
2021/03/02 09:52:33;;;;;;;18.17;8.90;;;8.90;82.40;;;7.38;73.34;102067.38;4924889;29;20048;-85
2021/03/02 09:55:29;;;;;;;23.73;10.07;;;9.00;81.40;;;7.45;74.10;102067.75;4939437;29;20063;-86
2021/03/02 09:58:10;;;;;;;18.02;9.43;;;9.10;82.10;;;7.52;73.97;102073.50;4936916;29;20115;-85
2021/03/02 10:00:48;;;;;;;18.52;9.30;;;9.20;81.30;;;7.60;73.82;102063.78;4934975;29;20051;-85
2021/03/02 10:03:17;;;;;;;17.98;8.88;;;9.30;81.00;;;7.69;74.19;102062.16;4938831;29;20047;-85
2021/03/02 10:05:53;;;;;;;16.30;8.35;;;9.50;81.10;;;7.82;73.53;102067.41;4950012;28;20051;-85
2021/03/02 10:08:32;;;;;;;18.55;9.13;;;9.80;80.40;;;7.90;73.13;102055.91;4941954;28;20078;-85
2021/03/02 10:11:03;;;;;;;18.48;8.65;;;9.70;80.20;;;8.01;72.40;102053.16;4940909;28;20048;-85
2021/03/02 10:13:33;;;;;;;18.23;8.77;;;9.80;79.00;;;8.12;71.74;102063.09;4925383;29;20047;-83
2021/03/02 10:16:23;;;;;;;15.52;8.10;;;9.90;78.40;;;8.17;70.64;102059.00;4927544;29;20521;-84
2021/03/02 10:19:01;;;;;;;15.75;7.75;;;10.00;77.50;;;8.26;69.92;102061.91;4942856;28;20051;-81
2021/03/02 10:21:31;;;;;;;15.90;8.25;;;10.00;76.50;;;8.31;69.28;102055.09;4944165;28;20413;-81
2021/03/02 10:24:00;;;;;;;19.50;8.38;;;10.10;75.70;;;8.42;68.90;102054.22;4941479;29;20085;-82
2021/03/02 10:26:30;;;;;;;17.98;8.98;;;10.20;75.20;;;8.47;68.80;102054.66;4938154;29;20074;-82
2021/03/02 10:28:58;;;;;;;15.75;8.32;;;10.30;74.80;;;8.54;68.55;102050.44;4933001;29;20134;-82